createdAt,value
2023-02-14T00:01:15.640Z,4.63
2023-02-14T00:03:42.964Z,3.85
2023-02-14T00:06:12.678Z,3.40
2023-02-14T00:08:44.317Z,4.10
2023-02-14T00:11:12.664Z,3.65
2023-02-14T00:13:39.935Z,8.13
2023-02-14T00:16:07.311Z,3.35
2023-02-14T00:18:53.123Z,6.07
2023-02-14T00:21:20.321Z,3.33
2023-02-14T00:23:47.519Z,7.78
2023-02-14T00:26:15.696Z,4.70
2023-02-14T00:28:43.674Z,5.40
2023-02-14T00:31:11.118Z,5.72
2023-02-14T00:33:38.577Z,4.30
2023-02-14T00:36:07.045Z,6.80
2023-02-14T00:38:34.581Z,4.32
2023-02-14T00:41:02.214Z,4.75
2023-02-14T00:43:29.680Z,3.53
2023-02-14T00:45:57.789Z,3.03
2023-02-14T00:48:25.120Z,4.63
2023-02-14T00:50:52.422Z,5.97
2023-02-14T00:53:19.642Z,2.90
2023-02-14T00:55:47.067Z,3.25
2023-02-14T00:58:15.373Z,7.10
2023-02-14T01:00:42.626Z,4.53
2023-02-14T01:03:09.876Z,5.30
2023-02-14T01:05:37.120Z,3.33
2023-02-14T01:08:04.899Z,5.85
2023-02-14T01:10:32.311Z,4.65
2023-02-14T01:12:59.741Z,5.25
2023-02-14T01:15:28.575Z,4.93
2023-02-14T01:17:55.779Z,3.85
2023-02-14T01:20:23.033Z,5.63
2023-02-14T01:22:50.596Z,3.72
2023-02-14T01:25:18.544Z,5.22
2023-02-14T01:27:45.811Z,5.05
2023-02-14T01:30:14.558Z,6.88
2023-02-14T01:32:42.378Z,4.55
2023-02-14T01:35:11.090Z,6.30
2023-02-14T01:37:38.286Z,7.95
2023-02-14T01:40:08.270Z,6.43
2023-02-14T01:42:36.772Z,5.10
2023-02-14T01:45:21.754Z,5.53
2023-02-14T01:47:54.261Z,9.07
2023-02-14T01:50:28.479Z,4.97
2023-02-14T01:52:58.975Z,7.07
2023-02-14T01:55:30.039Z,7.35
2023-02-14T01:58:03.142Z,5.53
2023-02-14T02:00:49.495Z,8.98
2023-02-14T02:03:19.113Z,6.75
2023-02-14T02:05:55.701Z,7.47
2023-02-14T02:08:25.651Z,7.60
2023-02-14T02:10:52.944Z,9.55
2023-02-14T02:13:21.916Z,6.50
2023-02-14T02:16:15.475Z,7.93
2023-02-14T02:19:14.729Z,8.52
2023-02-14T02:22:10.187Z,7.97
2023-02-14T02:25:06.697Z,9.55
2023-02-14T02:28:12.233Z,8.65
2023-02-14T02:31:07.833Z,7.10
2023-02-14T02:34:19.358Z,6.05
2023-02-14T02:40:06.903Z,9.45
2023-02-14T02:43:24.535Z,5.38
2023-02-14T02:46:23.652Z,5.53
2023-02-14T02:49:08.815Z,7.05
2023-02-14T02:52:07.455Z,8.02
2023-02-14T02:54:40.524Z,6.57
2023-02-14T02:57:14.724Z,9.15
2023-02-14T02:59:44.027Z,9.27
2023-02-14T03:02:29.765Z,7.75
2023-02-14T03:04:59.949Z,6.70
2023-02-14T03:07:35.623Z,10.05
2023-02-14T03:10:22.016Z,9.15
2023-02-14T03:13:20.334Z,9.32
2023-02-14T03:16:00.158Z,7.72
2023-02-14T03:18:57.833Z,11.15
2023-02-14T03:21:41.743Z,12.43
2023-02-14T03:24:24.941Z,10.68
2023-02-14T03:27:02.875Z,13.85
2023-02-14T03:30:12.156Z,9.10
2023-02-14T03:33:00.465Z,12.20
2023-02-14T03:36:02.081Z,13.50
2023-02-14T03:38:32.724Z,10.63
2023-02-14T03:41:05.521Z,10.23
2023-02-14T03:44:02.845Z,13.30
2023-02-14T03:46:51.457Z,9.43
2023-02-14T03:49:26.414Z,9.63
2023-02-14T03:51:55.984Z,11.45
2023-02-14T03:59:26.050Z,10.60
2023-02-14T04:02:15.275Z,8.35
2023-02-14T04:04:49.035Z,14.35
2023-02-14T04:07:18.556Z,5.55
2023-02-14T04:09:46.187Z,7.72
2023-02-14T04:12:14.624Z,8.52
2023-02-14T04:14:42.197Z,8.02
2023-02-14T04:17:33.694Z,7.93
2023-02-14T04:20:00.881Z,6.15
2023-02-14T04:22:28.143Z,13.50
2023-02-14T04:24:55.371Z,7.68
2023-02-14T04:27:22.582Z,8.20
2023-02-14T04:29:50.462Z,8.38
2023-02-14T04:32:25.336Z,9.63
2023-02-14T04:34:52.672Z,6.30
2023-02-14T04:37:20.401Z,8.95
2023-02-14T04:39:47.996Z,9.45
2023-02-14T04:42:15.731Z,9.20
2023-02-14T04:44:42.915Z,6.57
2023-02-14T04:47:10.125Z,11.63
2023-02-14T04:49:38.465Z,9.90
2023-02-14T04:52:06.446Z,8.80
2023-02-14T04:54:33.920Z,9.50
2023-02-14T04:57:02.188Z,10.30
2023-02-14T04:59:30.175Z,11.63
2023-02-14T05:02:01.343Z,10.48
2023-02-14T05:04:28.635Z,13.07
2023-02-14T05:06:55.848Z,7.97
2023-02-14T05:09:23.161Z,11.63
2023-02-14T05:11:50.894Z,7.75
2023-02-14T05:14:18.136Z,8.98
2023-02-14T05:16:46.574Z,7.43
2023-02-14T05:19:14.283Z,11.77
2023-02-14T05:21:41.690Z,9.38
2023-02-14T05:24:08.925Z,8.73
2023-02-14T05:26:36.380Z,6.85
2023-02-14T05:29:03.721Z,8.98
2023-02-14T05:31:31.071Z,10.00
2023-02-14T05:33:58.450Z,9.48
2023-02-14T05:36:26.045Z,10.00
2023-02-14T05:38:53.278Z,9.75
2023-02-14T05:41:22.671Z,9.85
2023-02-14T05:43:49.951Z,9.30
2023-02-14T05:46:47.927Z,8.20
2023-02-14T05:49:15.165Z,8.30
2023-02-14T05:51:42.355Z,5.10
2023-02-14T05:54:11.044Z,9.05
2023-02-14T05:56:38.506Z,9.65
2023-02-14T05:59:05.715Z,15.05
2023-02-14T06:01:33.120Z,13.20
2023-02-14T06:04:00.490Z,10.77
2023-02-14T06:06:29.976Z,7.25
2023-02-14T06:08:57.561Z,8.75
2023-02-14T06:11:24.753Z,11.80
2023-02-14T06:13:52.394Z,13.93
2023-02-14T06:16:20.540Z,11.10
2023-02-14T06:18:49.394Z,12.55
2023-02-14T06:21:16.825Z,13.55
2023-02-14T06:23:48.190Z,16.83
2023-02-14T06:26:19.343Z,12.52
2023-02-14T06:28:46.614Z,10.95
2023-02-14T06:31:17.880Z,12.43
2023-02-14T06:33:45.229Z,13.88
2023-02-14T06:36:12.461Z,12.50
2023-02-14T06:38:39.760Z,9.07
2023-02-14T06:41:09.835Z,15.65
2023-02-14T06:43:37.552Z,12.73
2023-02-14T06:46:04.975Z,9.98
2023-02-14T06:48:32.263Z,10.48
2023-02-14T06:50:59.789Z,10.05
2023-02-14T06:53:27.674Z,7.68
2023-02-14T06:55:55.196Z,10.95
2023-02-14T06:58:22.483Z,10.68
2023-02-14T07:00:49.754Z,10.05
2023-02-14T07:03:16.961Z,12.80
2023-02-14T07:05:45.113Z,9.27
2023-02-14T07:08:12.434Z,10.75
2023-02-14T07:10:39.796Z,9.75
2023-02-14T07:13:09.193Z,7.70
2023-02-14T07:15:41.666Z,10.13
2023-02-14T07:18:10.557Z,6.70
2023-02-14T07:20:37.791Z,13.00
2023-02-14T07:23:06.036Z,5.95
2023-02-14T07:25:33.230Z,10.00
2023-02-14T07:28:00.465Z,8.75
2023-02-14T07:30:28.178Z,14.20
2023-02-14T07:32:57.469Z,11.63
2023-02-14T07:35:25.804Z,7.88
2023-02-14T07:38:01.655Z,8.23
2023-02-14T07:40:30.009Z,10.55
2023-02-14T07:42:58.593Z,9.38
2023-02-14T07:45:25.906Z,9.88
2023-02-14T07:47:54.942Z,6.95
2023-02-14T07:50:23.148Z,12.00
2023-02-14T07:52:50.731Z,12.85
2023-02-14T07:55:19.276Z,13.00
2023-02-14T07:57:50.047Z,10.80
2023-02-14T08:00:17.919Z,11.95
2023-02-14T08:02:45.326Z,10.23
2023-02-14T08:05:12.911Z,9.45
2023-02-14T08:07:40.263Z,8.40
2023-02-14T08:10:07.863Z,10.68
2023-02-14T08:12:53.531Z,11.13
2023-02-14T08:15:39.422Z,6.35
2023-02-14T08:18:06.749Z,8.15
2023-02-14T08:20:33.985Z,8.85
2023-02-14T08:23:01.223Z,7.90
2023-02-14T08:25:28.512Z,6.75
2023-02-14T08:27:55.857Z,7.07
2023-02-14T08:30:23.535Z,7.38
2023-02-14T08:32:50.789Z,12.88
2023-02-14T08:35:18.054Z,9.07
2023-02-14T08:37:45.418Z,8.85
2023-02-14T08:40:13.155Z,12.68
2023-02-14T08:42:40.464Z,12.07
2023-02-14T08:45:08.143Z,12.23
2023-02-14T08:47:35.911Z,8.48
2023-02-14T08:50:04.914Z,8.88
2023-02-14T08:52:32.188Z,10.43
2023-02-14T08:54:59.440Z,12.55
2023-02-14T08:57:27.691Z,11.73
2023-02-14T08:59:54.924Z,10.77
2023-02-14T09:02:22.353Z,11.32
2023-02-14T09:04:49.626Z,10.23
2023-02-14T09:07:16.998Z,13.18
2023-02-14T09:09:44.216Z,12.50
2023-02-14T09:12:11.800Z,10.35
2023-02-14T09:14:43.849Z,17.77
2023-02-14T09:17:14.762Z,9.48
2023-02-14T09:19:42.582Z,10.57
2023-02-14T09:22:11.249Z,13.50
2023-02-14T09:24:40.202Z,12.52
2023-02-14T09:27:07.935Z,12.63
2023-02-14T09:29:35.221Z,9.98
2023-02-14T09:32:02.997Z,10.27
2023-02-14T09:34:49.448Z,12.75
2023-02-14T09:37:16.774Z,12.45
2023-02-14T09:39:44.060Z,13.55
2023-02-14T09:42:36.790Z,15.25
2023-02-14T09:45:14.110Z,17.23
2023-02-14T09:47:52.377Z,16.50
2023-02-14T09:50:54.666Z,16.02
2023-02-14T09:53:29.897Z,13.40
2023-02-14T09:56:04.497Z,15.52
2023-02-14T09:58:44.020Z,15.10
2023-02-14T10:01:23.482Z,14.23
2023-02-14T10:04:13.533Z,16.92
2023-02-14T10:06:51.257Z,17.92
2023-02-14T10:10:01.257Z,17.75
2023-02-14T10:12:34.366Z,15.80
2023-02-14T10:15:11.636Z,13.98
2023-02-14T10:17:54.476Z,17.77
2023-02-14T10:20:45.732Z,23.08
2023-02-14T10:23:29.101Z,20.20
2023-02-14T10:26:01.265Z,23.75
2023-02-14T10:28:35.262Z,18.85
2023-02-14T10:31:35.451Z,20.25
2023-02-14T10:34:19.397Z,21.00
2023-02-14T10:37:12.046Z,22.48
2023-02-14T10:40:07.068Z,19.00
2023-02-14T10:42:43.010Z,24.40
2023-02-14T10:45:18.122Z,20.20
2023-02-14T10:48:13.409Z,21.90
2023-02-14T10:50:52.518Z,25.25
2023-02-14T10:54:00.530Z,21.25
2023-02-14T10:57:21.796Z,22.90
2023-02-14T11:00:05.156Z,21.17
2023-02-14T11:02:40.144Z,14.88
2023-02-14T11:05:08.889Z,17.02
2023-02-14T11:07:36.181Z,22.38
2023-02-14T11:10:09.958Z,15.10
2023-02-14T11:12:38.686Z,16.85
2023-02-14T11:15:14.821Z,18.58
2023-02-14T11:17:42.767Z,17.92
2023-02-14T11:20:19.865Z,15.20
2023-02-14T11:22:47.094Z,19.20
2023-02-14T11:25:31.605Z,17.77
2023-02-14T11:28:16.906Z,18.52
2023-02-14T11:30:47.485Z,19.13
2023-02-14T11:33:38.909Z,19.17
2023-02-14T11:36:12.313Z,18.73
2023-02-14T11:38:41.207Z,20.27
2023-02-14T11:41:12.654Z,17.10
2023-02-14T11:43:42.679Z,19.48
2023-02-14T11:46:22.882Z,18.17
2023-02-14T11:49:03.777Z,18.95
2023-02-14T11:51:38.271Z,16.00
2023-02-14T11:54:06.290Z,19.67
2023-02-14T11:56:48.055Z,18.75
2023-02-14T11:59:32.313Z,13.77
2023-02-14T12:02:04.023Z,19.10
2023-02-14T12:04:46.126Z,18.77
2023-02-14T12:07:15.739Z,19.73
2023-02-14T12:09:43.284Z,18.52
2023-02-14T12:12:21.120Z,20.75
2023-02-14T12:14:48.932Z,17.63
2023-02-14T12:17:34.130Z,19.00
2023-02-14T12:20:11.467Z,17.77
2023-02-14T12:23:10.732Z,17.30
2023-02-14T12:25:54.503Z,17.83
2023-02-14T12:28:43.922Z,15.73
2023-02-14T12:31:13.157Z,17.35
2023-02-14T12:36:38.639Z,18.05
2023-02-14T12:39:15.880Z,19.13
2023-02-14T12:41:52.059Z,15.73
2023-02-14T12:44:30.521Z,18.35
2023-02-14T12:47:27.435Z,19.23
2023-02-14T12:50:09.574Z,19.77
2023-02-14T12:52:46.591Z,18.23
2023-02-14T12:55:41.327Z,18.25
2023-02-14T12:58:36.069Z,19.55
2023-02-14T13:01:39.213Z,18.92
2023-02-14T13:04:29.411Z,18.40
2023-02-14T13:06:59.597Z,15.73
2023-02-14T13:09:36.463Z,16.67
2023-02-14T13:12:12.477Z,18.35
2023-02-14T13:14:45.840Z,17.05
2023-02-14T13:17:34.740Z,15.48
2023-02-14T13:20:16.728Z,17.10
2023-02-14T13:22:44.933Z,19.50
2023-02-14T13:25:31.624Z,16.17
2023-02-14T13:28:01.760Z,16.08
2023-02-14T13:30:32.133Z,15.20
2023-02-14T13:33:08.201Z,20.20
2023-02-14T13:35:35.854Z,17.27
2023-02-14T13:38:07.797Z,16.13
2023-02-14T13:40:36.480Z,17.02
2023-02-14T13:43:04.805Z,17.67
2023-02-14T13:45:31.983Z,18.85
2023-02-14T13:48:18.919Z,17.35
2023-02-14T13:50:56.395Z,18.48
2023-02-14T13:53:32.555Z,20.63
2023-02-14T13:56:00.865Z,19.77
2023-02-14T13:58:28.525Z,17.65
2023-02-14T14:00:56.502Z,17.45
2023-02-14T14:03:29.987Z,15.75
2023-02-14T14:06:10.653Z,17.13
2023-02-14T14:08:46.560Z,17.00
2023-02-14T14:11:33.782Z,16.15
2023-02-14T14:14:29.987Z,14.60
2023-02-14T14:16:59.257Z,15.07
2023-02-14T14:19:26.433Z,17.60
2023-02-14T14:22:06.142Z,15.10
2023-02-14T14:24:39.401Z,14.65
2023-02-14T14:27:18.309Z,17.70
2023-02-14T14:29:52.509Z,12.60
2023-02-14T14:32:28.026Z,14.88
2023-02-14T14:35:16.587Z,14.27
2023-02-14T14:37:50.347Z,15.07
2023-02-14T14:40:31.650Z,15.20
2023-02-14T14:43:18.858Z,15.30
2023-02-14T14:48:19.507Z,15.40
2023-02-14T14:50:48.987Z,16.13
2023-02-14T14:53:27.701Z,12.88
2023-02-14T14:55:55.748Z,12.55
2023-02-14T14:58:36.730Z,17.88
2023-02-14T15:01:06.101Z,14.05
2023-02-14T15:03:34.047Z,14.60
2023-02-14T15:06:09.143Z,15.35
2023-02-14T15:08:36.742Z,14.27
2023-02-14T15:11:09.426Z,13.80
2023-02-14T15:13:53.489Z,13.52
2023-02-14T15:16:32.791Z,14.60
2023-02-14T15:19:08.181Z,12.30
2023-02-14T15:21:35.855Z,15.38
2023-02-14T15:24:03.609Z,13.55
2023-02-14T15:26:34.365Z,15.00
2023-02-14T15:29:04.363Z,14.13
2023-02-14T15:31:35.486Z,12.90
2023-02-14T15:34:04.733Z,11.75
2023-02-14T15:36:34.340Z,11.60
2023-02-14T15:39:04.503Z,13.48
2023-02-14T15:41:32.018Z,12.65
2023-02-14T15:43:59.649Z,13.93
2023-02-14T15:46:39.227Z,13.95
2023-02-14T15:49:10.108Z,13.45
2023-02-14T15:51:38.844Z,14.07
2023-02-14T15:54:21.768Z,15.93
2023-02-14T15:56:52.665Z,15.18
2023-02-14T15:59:26.850Z,13.75
2023-02-14T16:02:13.991Z,16.60
2023-02-14T16:04:41.363Z,14.13
2023-02-14T16:07:27.872Z,12.52
2023-02-14T16:10:39.668Z,16.77
2023-02-14T16:13:35.039Z,13.60
2023-02-14T16:16:20.205Z,14.48
2023-02-14T16:18:53.034Z,12.05
2023-02-14T16:21:28.936Z,17.75
2023-02-14T16:24:10.649Z,12.50
2023-02-14T16:26:43.143Z,12.57
2023-02-14T16:29:13.147Z,16.17
2023-02-14T16:34:42.774Z,21.20
2023-02-14T16:37:21.881Z,13.88
2023-02-14T16:39:51.641Z,13.75
2023-02-14T16:42:19.297Z,16.17
2023-02-14T16:44:47.479Z,17.00
2023-02-14T16:47:17.416Z,17.77
2023-02-14T16:49:45.026Z,14.77
2023-02-14T16:52:23.627Z,18.65
2023-02-14T16:54:52.110Z,16.73
2023-02-14T16:57:24.307Z,15.50
2023-02-14T16:59:51.989Z,17.40
2023-02-14T17:02:19.652Z,16.38
2023-02-14T17:04:47.049Z,16.05
2023-02-14T17:07:16.057Z,15.32
2023-02-14T17:09:51.081Z,14.05
2023-02-14T17:12:24.323Z,14.55
2023-02-14T17:14:57.075Z,13.07
2023-02-14T17:17:25.069Z,14.80
2023-02-14T17:19:52.956Z,15.35
2023-02-14T17:22:20.647Z,15.98
2023-02-14T17:24:47.863Z,13.35
2023-02-14T17:27:15.066Z,13.40
2023-02-14T17:29:42.258Z,12.98
2023-02-14T17:32:13.661Z,10.85
2023-02-14T17:34:41.201Z,14.55
2023-02-14T17:37:08.574Z,15.05
2023-02-14T17:39:35.833Z,16.67
2023-02-14T17:42:03.137Z,13.25
2023-02-14T17:44:32.431Z,13.68
2023-02-14T17:46:59.653Z,14.50
2023-02-14T17:49:26.970Z,17.00
2023-02-14T17:51:54.776Z,15.25
2023-02-14T17:54:22.417Z,13.52
2023-02-14T17:56:50.151Z,13.50
2023-02-14T17:59:17.376Z,13.25
2023-02-14T18:01:44.778Z,14.30
2023-02-14T18:04:12.453Z,15.13
2023-02-14T18:06:42.933Z,15.75
2023-02-14T18:09:10.972Z,15.45
2023-02-14T18:11:40.635Z,17.35
2023-02-14T18:14:08.475Z,13.52
2023-02-14T18:16:38.349Z,15.40
2023-02-14T18:19:06.861Z,13.45
2023-02-14T18:21:36.104Z,12.32
2023-02-14T18:24:04.176Z,11.93
2023-02-14T18:26:32.134Z,13.30
2023-02-14T18:29:06.575Z,12.57
2023-02-14T18:31:36.529Z,13.80
2023-02-14T18:34:05.055Z,12.90
2023-02-14T18:36:32.803Z,13.40
2023-02-14T18:39:00.735Z,10.15
2023-02-14T18:41:29.474Z,10.63
2023-02-14T18:43:57.188Z,7.35
2023-02-14T18:46:27.306Z,11.27
2023-02-14T18:48:56.673Z,9.27
2023-02-14T18:51:27.257Z,13.45
2023-02-14T18:53:57.034Z,10.80
2023-02-14T18:56:28.721Z,13.10
2023-02-14T18:58:59.254Z,16.23
2023-02-14T19:01:30.524Z,12.52
2023-02-14T19:03:59.909Z,13.60
2023-02-14T19:06:29.435Z,15.68
2023-02-14T19:11:27.273Z,13.23
2023-02-14T19:13:57.701Z,17.15
2023-02-14T19:16:30.457Z,13.65
2023-02-14T19:18:59.016Z,14.02
2023-02-14T19:21:30.637Z,14.63
2023-02-14T19:23:58.168Z,12.30
2023-02-14T19:26:29.429Z,14.75
2023-02-14T19:28:58.573Z,17.05
2023-02-14T19:31:26.988Z,17.48
2023-02-14T19:33:54.748Z,18.75
2023-02-14T19:36:23.397Z,14.77
2023-02-14T19:38:53.361Z,9.85
2023-02-14T19:41:27.186Z,16.15
2023-02-14T19:43:58.911Z,16.60
2023-02-14T19:46:28.321Z,12.77
2023-02-14T19:48:57.200Z,14.77
2023-02-14T19:51:30.126Z,17.67
2023-02-14T19:53:59.864Z,17.42
2023-02-14T19:56:31.201Z,15.05
2023-02-14T19:58:59.113Z,14.60
2023-02-14T20:01:31.282Z,10.80
2023-02-14T20:03:58.836Z,13.73
2023-02-14T20:06:29.152Z,11.95
2023-02-14T20:08:57.547Z,14.10
2023-02-14T20:11:32.152Z,12.15
2023-02-14T20:14:00.829Z,15.82
2023-02-14T20:16:30.434Z,15.48
2023-02-14T20:18:58.533Z,10.90
2023-02-14T20:21:28.430Z,16.17
2023-02-14T20:24:01.071Z,13.63
2023-02-14T20:26:29.416Z,15.57
2023-02-14T20:28:59.263Z,13.00
2023-02-14T20:31:26.814Z,14.45
2023-02-14T20:33:55.396Z,17.35
2023-02-14T20:36:23.093Z,12.13
2023-02-14T20:38:57.970Z,12.02
2023-02-14T20:41:26.086Z,12.32
2023-02-14T20:43:54.464Z,13.85
2023-02-14T20:46:23.094Z,13.15
2023-02-14T20:48:51.008Z,20.58
2023-02-14T20:51:20.357Z,16.85
2023-02-14T20:53:48.346Z,13.65
2023-02-14T20:56:16.328Z,15.70
2023-02-14T20:58:43.551Z,13.95
2023-02-14T21:01:14.220Z,16.98
2023-02-14T21:03:46.607Z,14.55
2023-02-14T21:06:15.233Z,10.00
2023-02-14T21:08:43.453Z,15.05
2023-02-14T21:11:12.842Z,15.43
2023-02-14T21:13:40.394Z,13.32
2023-02-14T21:16:11.475Z,13.30
2023-02-14T21:18:39.029Z,13.02
2023-02-14T21:21:08.525Z,21.35
2023-02-14T21:23:35.738Z,11.43
2023-02-14T21:26:03.066Z,16.70
2023-02-14T21:28:30.314Z,15.00
2023-02-14T21:31:08.714Z,15.88
2023-02-14T21:33:36.895Z,20.45
2023-02-14T21:36:13.033Z,22.08
2023-02-14T21:38:40.868Z,21.70
2023-02-14T21:41:13.852Z,15.43
2023-02-14T21:43:42.893Z,16.00
2023-02-14T21:46:27.028Z,16.33
2023-02-14T21:49:13.977Z,14.35
2023-02-14T21:51:41.921Z,13.57
2023-02-14T21:54:09.571Z,16.98
2023-02-14T21:56:38.844Z,15.73
2023-02-14T21:59:06.047Z,20.55
2023-02-14T22:01:35.413Z,23.70
2023-02-14T22:04:07.685Z,13.65
2023-02-14T22:06:37.228Z,16.25
2023-02-14T22:11:32.628Z,17.48
2023-02-14T22:14:00.647Z,13.55
2023-02-14T22:16:28.212Z,19.55
2023-02-14T22:18:55.422Z,16.40
2023-02-14T22:21:24.512Z,14.38
2023-02-14T22:23:52.105Z,15.63
2023-02-14T22:26:30.812Z,15.55
2023-02-14T22:29:00.172Z,17.45
2023-02-14T22:31:29.903Z,13.48
2023-02-14T22:33:57.304Z,12.10
2023-02-14T22:36:24.510Z,12.07
2023-02-14T22:38:52.062Z,19.23
2023-02-14T22:41:22.239Z,14.27
2023-02-14T22:43:50.068Z,11.85
2023-02-14T22:46:20.066Z,14.68
2023-02-14T22:48:48.776Z,17.35
2023-02-14T22:51:21.954Z,11.88
2023-02-14T22:53:50.699Z,11.48
2023-02-14T22:56:22.370Z,14.90
2023-02-14T22:58:56.988Z,15.75
2023-02-14T23:01:50.196Z,9.93
2023-02-14T23:04:21.523Z,12.88
2023-02-14T23:06:52.187Z,10.65
2023-02-14T23:09:20.256Z,12.55
2023-02-14T23:11:48.007Z,6.47
2023-02-14T23:14:35.060Z,14.55
2023-02-14T23:17:16.137Z,11.23
2023-02-14T23:20:03.121Z,13.55
2023-02-14T23:22:34.185Z,11.43
2023-02-14T23:25:04.675Z,12.48
2023-02-14T23:27:41.569Z,13.68
2023-02-14T23:30:12.378Z,13.80
2023-02-14T23:32:39.889Z,14.52
2023-02-14T23:35:07.547Z,11.85
2023-02-14T23:37:34.867Z,7.60
2023-02-14T23:40:02.106Z,6.93
2023-02-14T23:42:29.502Z,18.95
2023-02-14T23:45:16.859Z,12.25
2023-02-14T23:47:44.119Z,11.95
2023-02-14T23:50:11.478Z,11.98
2023-02-14T23:52:41.580Z,8.90
2023-02-14T23:55:09.223Z,13.15
2023-02-14T23:57:37.235Z,9.82
